Boeing 737-800 спустился к морю в Трабзоне

Boeing 737-82RWL авиакомпании Pegasus Airlines (H9) перебежал полосу во время посадки в аэропорту Трабзона.

Из находившихся на борту 6 членов экипажа и 162 пассажиров никто серьёзно не пострадал. Авиалайнер (прибыл в Pegasus напрямую от производителя 1 декабря 2012 года) получил значительные повреждения и, вероятно, будет списан.

Подробности

13 января рейс PC8622 из Анкары, аэропорт Эсенбога (ESB), в Трабзон (TZX) прибывал после часового полёта. Самолёт совершил прямой подход к взлётно-посадочной полосе 11 и коснулся её поверхности в 23:25 по местному времени.

Пробежав около 2 400 метров, воздушное судно скатилось на левую сторону и упало с обрыва к морю. Все находившиеся на борту пассажиры и члены экипажа эвакуировались через хвостовые и центральные аварийные выходы.

ВПП 11 в Трабзоне обладает асфальтовым покрытием, длиной 2 640 метров и оснащён курсо-глиссадной системой 1-й (базовой) категории. Высота над уровнем моря в точке выхода аварийного самолёта составляет 28,90 метров.

На момент инцидента почти полчаса шёл дождь, видимость ухудшилась до 4 000 метров.

Самолёт до и после аварии

Источники фото: planespotters.net и турецкое издание Новый Рассвет (Yeni Şafak).

Точные погодные данные

20:14 по Гринвичу/23:14 местного времени:
LTCG 132014Z 00000KT 4000 -RA BR BKN002 BKN025 08/07 Q1021 NOSIG RMK RWY29 VRB01KT

20:20 по Гринвичу/23:20 местного времени:
LTCG 132020Z 24001KT 4000 -RA BR BKN003 BKN025 08/07 Q1021 NOSIG RMK RWY29 00000KT

20:50 по Гринвичу/23:50 местного времени:
LTCG 132050Z 25001KT 2800 -RA BR BKN004 BKN025 08/07 Q1021 BECMG TL2100 3200

Авиационные инциденты в описании Aeronautica

Разрушение в полёте двигателя у Boeing 737-700 привело к смерти пассажира

Разрушение в полёте двигателя у Boeing 737-700 привело к смерти пассажира

Boeing 737-700 авиакомпании Southwest Airlines (WN) был вынужден совершить аварийную посадку вскоре после вылета из Нью-Йорка ввиду разрушения двигателя. Один пассажир умер после госпитализации — ...

Индия запретила полёты всех Airbus A320neo с новыми двигателями Pratt & Whitney

Индия запретила полёты всех Airbus A320neo с новыми двигателями Pratt & Whitney

Уже больше месяца назад — с 11 февраля — Генеральная дирекция гражданской авиации Индии (Directorate General of Civil Aviation, DGCA) запретила полёты всех оборудованных проблемными ...

Bombardier Q400 бангладешской авиакомпании разбился в аэропорту Катманду

Bombardier Q400 бангладешской авиакомпании разбился в аэропорту Катманду

Bombardier Q400 авиакомпании US-Bangla Airlines (BS) потерпел крушение при посадке в аэропорту Трибхуван (KTM) непальской столицы Катманду в 14:18 по местному времени. Самолёт завершал рейс ...

Самолёт Iran Aseman разбился в горах Загроса

Самолёт Iran Aseman разбился в горах Загроса

ATR 72-212 авиакомпании Iran Aseman Airlines (EP) разбился при падении в хребте Дена горной системы Загрос на юге Ирана. Самолёт направлялся из столицы страны в ...

Саратовский Ан-148 разбился в Московской области

Саратовский Ан-148 разбился в Московской области

Ан-148 авиакомпании Саратовские авиалинии (6W) разбился при столкновении с землёй возле деревни Аргуново Московской области. Все находившиеся на борту 65 пассажиров и 6 членов экипажа ...

Boeing 737-800 спустился к морю в Трабзоне

Boeing 737-800 спустился к морю в Трабзоне

Boeing 737-82RWL авиакомпании Pegasus Airlines (H9) перебежал полосу во время посадки в аэропорту Трабзона. Из находившихся на борту 6 членов экипажа и 162 пассажиров никто серьёзно ...